x

Buoy F01 - West Penobscot Bay (44033) Wave Buoy

6:04pm - Fri 6th May 2016 All times are EDT. -4 hours from GMT.

  • Sig Wave height 3.0ft
  • Peak Period 11s
  • Wind
    7mph, 9mph gusts
  • Sea Temp 47°f
  • 空気 Temp 49°f
  • Sea Pressure 1011.5mb
  • Buoy F01 - West Penobscot Bay
  • Buoy F01 - West Penobscot Bay

More Historic Weather Station data

Upgrade to MSW Pro to gain access to the past 30 days of data for over 8000 Wavebouys and Weather Stations around the globe.

Join Pro

Comparision Forecast

View Surf forecast
   
Fri 05/06 6:04pm 3ft 11s 7 9 mph 1011.5mb 47f 49f
5:04pm 3ft 11s 4
mph
1010.9mb 47f 49f
4:04pm 3ft 11s 9 11 mph 1010.8mb 47f 49f
3:04pm 2.5ft 11s 4
mph
1010.2mb 45f 53f
2:04pm 1.6ft 11s 4 7 mph 1010.4mb 45f 50f
1:04pm 2ft 11s 2 4 mph 1010.3mb 46f 49f
12:04pm 2ft 8s 9 11 mph 1009.7mb 46f 47f
11:04am 2.5ft 8s 13 16 mph 1008.9mb 45f 47f
10:04am 2.5ft 4s 18 22 mph 1007.9mb 45f 46f
9:04am 2.5ft 4s 18 22 mph 1007mb 44f 45f
8:04am 2.5ft 4s 20 22 mph 1006.2mb 44f 45f
7:04am 3ft 4s 22 27 mph 1004.8mb 45f 44f
6:04am 2.5ft 4s 22 27 mph 1003.3mb 45f 45f
5:04am 3ft 3s 22 27 mph 1002.1mb 45f 45f
4:04am 2.5ft 3s 22 27 mph 1002.2mb 46f 45f
3:04am 2ft 3s 22 27 mph 1002.2mb 46f 45f
2:04am 2.5ft 8s 20 22 mph 1002.6mb 45f 45f
1:04am 2.5ft 3s 18 22 mph 1002.8mb 44f 45f
12:04am 2.5ft 3s 20 25 mph 1003.1mb 44f 45f
Thu 05/05 11:04pm 3ft 4s 18 22 mph 1003.9mb 44f 45f
10:04pm 2.5ft 8s 18 22 mph 1004.7mb 44f 44f
9:04pm 2.5ft 5s 20 22 mph 1005.3mb 44f 44f
8:04pm 2.5ft 8s 18 22 mph 1006.1mb 45f 44f
7:04pm 3ft 8s 20 22 mph 1006.6mb 45f 45f
6:04pm 2.5ft 8s 18 22 mph 1007mb 46f 45f
5:04pm 2.5ft 8s 16 18 mph 1007.3mb 46f 45f
4:04pm 2.5ft 8s 16 18 mph 1007.7mb 46f 46f
3:04pm 2.5ft 8s 16 18 mph 1008.1mb 46f 45f
2:04pm 3ft 8s 18 20 mph 1008.2mb 46f 45f
1:04pm 3.5ft 8s 18 20 mph 1008.4mb 46f 44f
12:04pm 3.5ft 8s 18 22 mph 1008.2mb 44f 43f
11:04am 3.5ft 3s 20 22 mph 1008.5mb 44f 43f
10:04am 3.5ft 6s 18 22 mph 1008.6mb 44f 43f
9:04am 3ft 6s 16 20 mph 1008.3mb 44f 43f
8:04am 3.5ft 4s 20 25 mph 1008mb 43f 44f
7:04am 2.5ft 6s 18 22 mph 1008.1mb 44f 43f
6:04am 3.5ft 4s 16 20 mph 1008mb 44f 43f
5:04am 2ft 3s 20 22 mph 1007.5mb 44f 43f
4:04am 2.5ft 3s 22 27 mph 1007.4mb 44f 44f
3:04am 1.6ft 3s 18 22 mph 1008.4mb 44f 44f
2:04am 2ft 8s 16 18 mph 1009mb 44f 44f
1:04am 1.6ft 8s 13 18 mph 1009.7mb 44f 44f
12:04am 1.3ft 5s 16 20 mph 1009.7mb 44f 44f
Wed 05/04 11:04pm 1.6ft 6s  -  mph - 44f -
10:04pm 1.6ft 4s 13 18 mph 1010.8mb 45f 44f
9:04pm 2ft 4s 13 18 mph 1011.3mb 45f 44f
8:04pm 2.5ft 5s 13 18 mph 1011mb 45f 44f
7:04pm 2.5ft 5s 16 20 mph 1011mb 44f 44f
6:04pm 2.5ft 8s 13 18 mph 1011.3mb 45f 44f
5:04pm 2.5ft 8s 16 18 mph 1011.5mb 45f 44f
4:04pm 2ft 5s 13 16 mph 1011.8mb 45f 44f
3:04pm 2.5ft 8s 13 16 mph 1011.8mb 45f 44f
2:04pm 2.5ft 8s 11 13 mph 1012.5mb 45f 43f
1:04pm 2ft 4s 18 20 mph 1012.4mb 45f 42f
12:04pm 1.6ft 3s 18 20 mph 1012.5mb 45f 43f
11:04am 1.6ft 8s 16 18 mph 1011.6mb 46f 44f
10:04am 1.6ft 8s 7 9 mph 1011.8mb 45f 44f
9:04am 1.3ft 8s 9 11 mph 1012.3mb 45f 44f
8:04am 1.6ft 8s 2
mph
1012.4mb 44f 46f
7:04am 1.3ft 6s 4
mph
1011.3mb 45f 45f
6:04am 1.3ft 8s 7
mph
1011.3mb 45f 45f
5:04am 1.6ft 8s 4 7 mph 1010.8mb 45f 45f
4:04am 1.6ft 8s 4
mph
1010.7mb 45f 46f
3:04am 1.6ft 8s 2
mph
1010.7mb 45f 45f
2:04am 1.3ft 8s 4
mph
1010.7mb 45f 45f
1:04am 1.3ft 8s 7
mph
1010.6mb 45f 45f
12:04am 1.3ft 8s 2 4 mph 1010.8mb 45f 46f
Tue 05/03 11:04pm 1.6ft 8s 2
mph
1010.7mb 44f 45f
10:04pm 1.3ft 11s 2
mph
1010.9mb 45f 45f
9:04pm 1.6ft 8s 4 9 mph 1010.5mb 45f 46f
8:04pm 1.6ft 8s 4
mph
1010.2mb 45f 46f
7:04pm 1.6ft 8s 4 7 mph 1009.8mb 44f 46f
6:04pm 1.6ft 8s 4
mph
1010mb 45f 46f
5:04pm 1.3ft 8s 2
mph
1009.9mb 45f 48f
4:04pm 1.6ft 8s 4
mph
1009.7mb 45f 47f
3:04pm 1.6ft 8s 4 7 mph 1010.4mb 45f 47f
2:04pm 1.6ft 8s 4 7 mph 1010.9mb 45f 48f
1:04pm 1.6ft 8s 4 7 mph 1011mb 45f 47f
12:04pm 1.6ft 8s  -  mph - 44f -
11:04am 1.6ft 6s 4 7 mph 1011.4mb 44f 46f
10:04am 1.6ft 6s 7 9 mph 1011.5mb 44f 44f
9:04am 1.6ft 8s 7 9 mph 1011.8mb 44f 44f
8:04am 1.6ft 8s 7 9 mph 1011.7mb 43f 43f
7:04am 2ft 8s 7 9 mph 1011.5mb 44f 43f
6:04am 2ft 6s 9
mph
1011.3mb 44f 43f
5:04am 2.5ft 8s 13 18 mph 1010mb 44f 43f
4:04am 2.5ft 8s 11 13 mph 1010.8mb 44f 43f
3:04am 3ft 8s 13 16 mph 1010.4mb 44f 43f
2:04am 3.5ft 6s 16 18 mph 1010.8mb 44f 43f
1:04am 3.5ft 8s 13 18 mph 1010.6mb 44f 43f
12:04am 4ft 6s 13 18 mph 1010.9mb 43f 43f